Time;durP1;ratioP1;P1;durP2;ratioP2;P2;SDS_P1;SDS_P2;PMS_P1;PMS_P2;Temp;Humidity;BMP_temperature;BMP_pressure;BME280_temperature;BME280_humidity;BME280_pressure;Samples;Min_cycle;Max_cycle;Signal;HPM_P1;HPM_P2
2021/04/04 00:01:51;;;;;;;8.00;6.03;;;154.40;2252.80;;;;;;4973405;28;20045;-74
2021/04/04 00:04:17;;;;;;;8.88;6.30;;;154.30;2252.80;;;;;;4969319;28;20388;-75
2021/04/04 00:06:43;;;;;;;13.32;6.75;;;154.30;2252.80;;;;;;4974225;28;20035;-74
2021/04/04 00:09:09;;;;;;;8.68;6.47;;;154.40;2252.80;;;;;;4979966;28;20027;-75
2021/04/04 00:11:34;;;;;;;11.48;7.15;;;154.40;2252.80;;;;;;4976135;28;20046;-75
2021/04/04 00:14:01;;;;;;;11.15;6.43;;;154.30;2252.80;;;;;;4966679;28;20480;-74
2021/04/04 00:16:27;;;;;;;9.43;6.30;;;154.40;2252.80;;;;;;4973162;28;20105;-75
2021/04/04 00:18:52;;;;;;;15.35;6.38;;;154.40;2252.80;;;;;;4966135;28;20042;-75
2021/04/04 00:21:18;;;;;;;12.45;6.78;;;154.30;2252.80;;;;;;4975660;28;20407;-75
2021/04/04 00:23:44;;;;;;;9.10;6.22;;;154.40;2252.80;;;;;;4972413;28;20445;-75
2021/04/04 00:26:10;;;;;;;7.65;6.10;;;154.40;2252.80;;;;;;4970775;28;20653;-75
2021/04/04 00:28:35;;;;;;;10.07;5.93;;;154.40;2252.80;;;;;;4965115;28;20051;-74
2021/04/04 00:31:01;;;;;;;12.07;6.20;;;154.40;2252.80;;;;;;4966705;28;20043;-75
2021/04/04 00:33:27;;;;;;;7.57;5.88;;;154.40;2252.80;;;;;;4954221;28;20043;-74
2021/04/04 00:35:53;;;;;;;12.55;6.60;;;154.30;2252.80;;;;;;4974345;28;20545;-74
2021/04/04 00:38:18;;;;;;;7.68;5.93;;;154.30;2252.80;;;;;;4972579;28;20031;-76
2021/04/04 00:40:45;;;;;;;9.65;6.35;;;154.30;2252.80;;;;;;4974752;28;20102;-75
2021/04/04 00:43:11;;;;;;;8.25;6.13;;;154.30;2252.80;;;;;;4985165;28;20029;-75
2021/04/04 00:45:39;;;;;;;9.48;5.75;;;154.20;2252.80;;;;;;4972281;28;20095;-76
2021/04/04 00:48:07;;;;;;;9.18;6.05;;;154.50;2252.80;;;;;;4982640;28;20028;-75
2021/04/04 00:50:39;;;;;;;8.13;6.25;;;154.30;2252.80;;;;;;4974077;28;20030;-75
2021/04/04 00:53:16;;;;;;;7.93;5.80;;;154.20;2252.80;;;;;;4971535;28;20026;-74
2021/04/04 00:55:42;;;;;;;10.73;6.50;;;154.30;2252.80;;;;;;4975040;28;20035;-74
2021/04/04 00:58:08;;;;;;;8.57;6.00;;;154.30;2252.80;;;;;;4971309;28;20046;-74
2021/04/04 01:00:34;;;;;;;9.30;6.28;;;154.20;2252.80;;;;;;4970143;28;20109;-75
2021/04/04 01:03:00;;;;;;;10.10;6.45;;;154.10;2252.80;;;;;;4965186;28;20034;-75
2021/04/04 01:05:37;;;;;;;10.77;6.38;;;154.20;2252.80;;;;;;4974823;28;20075;-75
2021/04/04 01:08:05;;;;;;;9.48;6.53;;;154.20;2252.80;;;;;;4970857;28;20121;-75
2021/04/04 01:10:36;;;;;;;10.07;6.40;;;154.20;2252.80;;;;;;4972954;28;20037;-75
2021/04/04 01:13:08;;;;;;;9.23;6.00;;;154.10;2252.80;;;;;;4957274;28;20177;-74
2021/04/04 01:15:36;;;;;;;10.20;6.18;;;154.10;2252.80;;;;;;4983990;28;20025;-75
2021/04/04 01:18:10;;;;;;;9.40;6.53;;;154.20;2252.80;;;;;;4959191;28;20150;-74
2021/04/04 01:21:00;;;;;;;10.60;6.57;;;154.20;2252.80;;;;;;4970787;28;20548;-76
2021/04/04 01:23:39;;;;;;;8.00;5.90;;;154.10;2252.80;;;;;;4961960;28;20026;-76
2021/04/04 01:26:15;;;;;;;8.48;6.07;;;154.10;2252.80;;;;;;4981138;28;20031;-74
2021/04/04 01:28:43;;;;;;;7.57;5.55;;;154.10;2252.80;;;;;;4954219;28;20038;-75
2021/04/04 01:31:11;;;;;;;9.43;5.85;;;154.10;2252.80;;;;;;4973334;28;20026;-74
2021/04/04 01:33:38;;;;;;;7.55;6.07;;;153.90;2252.80;;;;;;4955757;28;20030;-74
2021/04/04 01:36:10;;;;;;;9.27;6.60;;;154.10;2252.80;;;;;;4977791;28;20069;-75
2021/04/04 01:38:40;;;;;;;11.50;5.97;;;154.10;2252.80;;;;;;4966553;28;20039;-75
2021/04/04 01:41:28;;;;;;;8.73;6.55;;;154.10;2252.80;;;;;;4954215;28;20039;-75
2021/04/04 01:43:58;;;;;;;11.60;6.32;;;154.00;2252.80;;;;;;4962835;28;20085;-76
2021/04/04 01:46:25;;;;;;;8.75;6.40;;;154.00;2252.80;;;;;;4971815;28;20030;-74
2021/04/04 01:48:52;;;;;;;9.23;6.18;;;154.00;2252.80;;;;;;4976393;28;20101;-75
2021/04/04 01:51:18;;;;;;;8.05;6.30;;;153.90;2252.80;;;;;;4973422;28;20082;-74
2021/04/04 01:53:45;;;;;;;8.80;6.55;;;153.90;2252.80;;;;;;4973686;28;20531;-74
2021/04/04 01:56:11;;;;;;;9.90;6.15;;;153.90;2252.80;;;;;;4974418;28;20041;-75
2021/04/04 01:58:39;;;;;;;8.45;5.63;;;154.00;2252.80;;;;;;4972769;28;20039;-74
2021/04/04 02:01:06;;;;;;;9.73;5.68;;;154.00;2252.80;;;;;;4971421;28;20023;-74
2021/04/04 02:03:33;;;;;;;9.13;5.63;;;154.00;2252.80;;;;;;4972228;28;20027;-75
2021/04/04 02:06:00;;;;;;;9.55;5.95;;;153.90;2252.80;;;;;;4978101;28;20027;-76
2021/04/04 02:08:28;;;;;;;8.57;6.10;;;154.00;2252.80;;;;;;4976996;28;20030;-75
2021/04/04 02:10:55;;;;;;;10.07;5.90;;;153.80;2252.80;;;;;;4980190;28;20030;-76
2021/04/04 02:13:22;;;;;;;8.85;6.20;;;153.80;2252.80;;;;;;4976587;28;20081;-77
2021/04/04 02:15:49;;;;;;;8.50;6.22;;;153.80;2252.80;;;;;;4981733;28;20062;-75
2021/04/04 02:18:15;;;;;;;9.48;5.90;;;153.90;2252.80;;;;;;4978219;28;20050;-75
2021/04/04 02:20:44;;;;;;;8.95;6.22;;;153.90;2252.80;;;;;;4981568;28;20030;-74
2021/04/04 02:23:11;;;;;;;10.95;6.32;;;153.80;2252.80;;;;;;4977413;28;20473;-74
2021/04/04 02:25:38;;;;;;;10.15;6.28;;;153.80;2252.80;;;;;;4979806;28;20388;-75
2021/04/04 02:28:05;;;;;;;9.13;6.28;;;153.70;2252.80;;;;;;4976415;28;20027;-75
2021/04/04 02:30:31;;;;;;;9.20;6.60;;;153.80;2252.80;;;;;;4980874;28;20035;-76
2021/04/04 02:33:11;;;;;;;10.30;6.45;;;153.70;2252.80;;;;;;4981094;28;20031;-78
2021/04/04 02:35:40;;;;;;;9.38;7.30;;;153.70;2252.80;;;;;;4981027;28;20015;-80
2021/04/04 02:38:18;;;;;;;9.60;6.53;;;153.60;2252.80;;;;;;4982936;28;20118;-76
2021/04/04 02:40:46;;;;;;;9.70;6.93;;;153.70;2252.80;;;;;;4962458;28;20057;-74
2021/04/04 02:43:17;;;;;;;9.55;7.18;;;153.60;2252.80;;;;;;4977007;28;20023;-73
2021/04/04 02:45:45;;;;;;;9.65;6.30;;;153.60;2252.80;;;;;;4976790;28;20130;-74
2021/04/04 02:48:16;;;;;;;10.13;7.13;;;153.70;2252.80;;;;;;4975028;28;20045;-73
2021/04/04 02:50:44;;;;;;;12.82;6.80;;;153.60;2252.80;;;;;;4977480;28;20054;-74
2021/04/04 02:53:12;;;;;;;9.70;6.40;;;153.70;2252.80;;;;;;4977026;28;20019;-74
2021/04/04 02:55:40;;;;;;;10.52;6.65;;;153.70;2252.80;;;;;;4963372;28;20053;-74
2021/04/04 02:58:10;;;;;;;9.43;7.00;;;153.60;2252.80;;;;;;4977857;28;20042;-74
2021/04/04 03:00:40;;;;;;;10.00;7.05;;;153.70;2252.80;;;;;;4974467;28;20027;-73
2021/04/04 03:03:08;;;;;;;9.77;7.35;;;153.70;2252.80;;;;;;4980239;28;20023;-74
2021/04/04 03:05:35;;;;;;;9.57;6.93;;;153.60;2252.80;;;;;;4976276;28;20026;-74
2021/04/04 03:08:05;;;;;;;11.48;7.15;;;153.70;2252.80;;;;;;4966762;28;20059;-74
2021/04/04 03:10:32;;;;;;;10.75;7.15;;;153.80;2252.80;;;;;;4985777;28;20046;-74
2021/04/04 03:12:59;;;;;;;10.98;6.75;;;153.70;2252.80;;;;;;4975406;28;20022;-75
2021/04/04 03:15:27;;;;;;;9.23;6.93;;;153.80;2252.80;;;;;;4975953;28;20449;-73
2021/04/04 03:17:55;;;;;;;11.50;7.38;;;153.80;2252.80;;;;;;4977364;28;20046;-75
2021/04/04 03:20:22;;;;;;;11.07;7.40;;;153.70;2252.80;;;;;;4982094;28;20030;-80
2021/04/04 03:22:52;;;;;;;9.27;6.70;;;153.70;2252.80;;;;;;4978842;28;20054;-76
2021/04/04 03:25:22;;;;;;;8.90;7.28;;;153.80;2252.80;;;;;;4960919;28;20472;-74
2021/04/04 03:27:49;;;;;;;10.35;7.85;;;153.80;2252.80;;;;;;4975662;28;20023;-73
2021/04/04 03:30:35;;;;;;;11.40;7.72;;;153.90;2252.80;;;;;;4976608;28;20066;-74
2021/04/04 03:33:03;;;;;;;9.77;7.22;;;153.80;2252.80;;;;;;4968373;28;20027;-73
2021/04/04 03:35:31;;;;;;;10.30;7.57;;;153.80;2252.80;;;;;;4968770;28;20027;-75
2021/04/04 03:38:04;;;;;;;10.68;7.72;;;153.80;2252.80;;;;;;4970736;28;20030;-75
2021/04/04 03:40:35;;;;;;;11.35;7.68;;;128.90;2252.80;;;;;;4974890;28;20457;-74
2021/04/04 03:43:30;;;;;;;9.98;7.75;;;153.70;2252.80;;;;;;4975063;28;20096;-75
2021/04/04 03:46:09;;;;;;;12.65;7.72;;;153.70;2252.80;;;;;;4974652;28;20389;-74
2021/04/04 03:48:36;;;;;;;12.88;8.10;;;153.60;2252.80;;;;;;4977901;28;20023;-76
2021/04/04 03:51:10;;;;;;;11.25;8.15;;;153.60;2252.80;;;;;;4966225;28;20077;-78
2021/04/04 03:53:42;;;;;;;13.40;8.35;;;153.80;2252.80;;;;;;4978334;28;20485;-75
2021/04/04 03:56:10;;;;;;;13.13;9.30;;;153.70;2252.80;;;;;;4961247;29;20035;-79
2021/04/04 03:58:38;;;;;;;11.57;8.63;;;128.90;2252.80;;;;;;4955582;29;20051;-75
2021/04/04 04:01:06;;;;;;;13.45;8.70;;;153.60;2252.80;;;;;;4953615;29;20483;-74
2021/04/04 04:03:35;;;;;;;11.00;8.07;;;128.90;2252.80;;;;;;4956944;28;20437;-74
2021/04/04 04:06:01;;;;;;;12.65;9.20;;;153.60;2252.80;;;;;;4955828;29;20027;-75
2021/04/04 04:08:37;;;;;;;11.95;8.52;;;128.90;2252.80;;;;;;4966432;29;20501;-75
2021/04/04 04:11:05;;;;;;;11.50;8.43;;;153.60;2252.80;;;;;;4954843;29;21777;-75
2021/04/04 04:13:33;;;;;;;14.85;9.95;;;153.60;2252.80;;;;;;4965109;28;20065;-76
2021/04/04 04:15:59;;;;;;;12.27;9.98;;;128.90;2252.80;;;;;;4940675;28;20122;-74
2021/04/04 04:18:26;;;;;;;13.30;9.40;;;128.70;2252.80;;;;;;4955708;29;20039;-74
2021/04/04 04:20:52;;;;;;;13.88;9.18;;;128.70;2252.80;;;;;;4958021;28;20027;-74
2021/04/04 04:23:18;;;;;;;14.15;10.30;;;128.80;2252.80;;;;;;4955755;28;20389;-75
2021/04/04 04:25:45;;;;;;;17.35;10.02;;;128.80;2252.80;;;;;;4954514;28;20038;-74
2021/04/04 04:28:12;;;;;;;12.27;9.88;;;128.80;2252.80;;;;;;4947418;29;20469;-76
2021/04/04 04:30:39;;;;;;;12.25;8.90;;;128.90;2252.80;;;;;;4940305;29;20035;-75
2021/04/04 04:33:15;;;;;;;11.98;10.00;;;128.80;2252.80;;;;;;4963750;29;20031;-76
2021/04/04 04:35:44;;;;;;;14.88;9.60;;;128.80;2252.80;;;;;;4963687;28;20098;-74
2021/04/04 04:38:10;;;;;;;11.48;8.98;;;128.90;2252.80;;;;;;4941839;29;20031;-74
2021/04/04 04:40:37;;;;;;;14.15;9.77;;;153.60;2252.80;;;;;;4959977;29;20019;-75
2021/04/04 04:43:17;;;;;;;12.90;8.85;;;153.60;2252.80;;;;;;4947075;29;20038;-75
2021/04/04 04:45:48;;;;;;;12.38;9.60;;;153.70;2252.80;;;;;;4959839;28;20091;-75
2021/04/04 04:48:14;;;;;;;13.07;9.48;;;153.70;2252.80;;;;;;4953879;29;20023;-74
2021/04/04 04:50:42;;;;;;;12.05;8.38;;;153.60;2252.80;;;;;;4959344;28;20038;-75
2021/04/04 04:53:08;;;;;;;13.18;8.82;;;153.70;2252.80;;;;;;4967032;28;20034;-75
2021/04/04 04:55:36;;;;;;;10.93;8.18;;;153.70;2252.80;;;;;;4962848;28;20986;-75
2021/04/04 04:58:04;;;;;;;11.88;9.10;;;153.70;2252.80;;;;;;4956527;28;20757;-75
2021/04/04 05:00:32;;;;;;;11.20;9.25;;;153.60;2252.80;;;;;;4973883;28;20027;-75
2021/04/04 05:02:59;;;;;;;11.90;9.38;;;153.60;2252.80;;;;;;4940169;28;20118;-75
2021/04/04 05:05:25;;;;;;;11.95;8.93;;;153.60;2252.80;;;;;;4965241;28;20034;-75
2021/04/04 05:07:53;;;;;;;12.15;9.10;;;153.60;2252.80;;;;;;4965389;28;20039;-75
2021/04/04 05:10:21;;;;;;;11.45;8.50;;;128.90;2252.80;;;;;;4961584;28;20023;-75
2021/04/04 05:12:52;;;;;;;13.10;9.50;;;128.90;2252.80;;;;;;4951976;28;20102;-76
2021/04/04 05:15:19;;;;;;;12.25;9.55;;;128.80;2252.80;;;;;;4951645;28;20019;-76
2021/04/04 05:17:45;;;;;;;13.30;9.70;;;128.90;2252.80;;;;;;4958661;28;20493;-75
2021/04/04 05:20:11;;;;;;;12.13;9.93;;;128.90;2252.80;;;;;;4951086;28;20019;-76
2021/04/04 05:22:39;;;;;;;13.60;10.13;;;128.00;2252.80;;;;;;4964134;28;20019;-78
2021/04/04 05:25:06;;;;;;;12.43;9.73;;;128.90;2252.80;;;;;;4957860;29;20102;-77
2021/04/04 05:27:43;;;;;;;11.20;8.98;;;128.90;2252.80;;;;;;4966431;28;20023;-76
2021/04/04 05:30:12;;;;;;;13.68;9.95;;;128.80;2252.80;;;;;;4963943;28;20037;-75
2021/04/04 05:32:48;;;;;;;15.13;10.57;;;128.90;2252.80;;;;;;4953909;28;20019;-74
2021/04/04 05:35:22;;;;;;;14.02;9.50;;;128.80;2252.80;;;;;;4942800;28;20020;-73
2021/04/04 05:37:50;;;;;;;11.88;9.68;;;128.90;2252.80;;;;;;4951045;28;20035;-75
2021/04/04 05:40:19;;;;;;;14.27;10.40;;;128.90;2252.80;;;;;;4952304;28;20026;-74
2021/04/04 05:42:51;;;;;;;13.18;9.38;;;128.90;2252.80;;;;;;4948076;28;20031;-79
2021/04/04 05:45:37;;;;;;;12.88;9.75;;;128.90;2252.80;;;;;;4944083;29;20106;-82
2021/04/04 05:48:12;;;;;;;13.60;10.10;;;153.60;2252.80;;;;;;4954684;28;20118;-74
2021/04/04 05:50:49;;;;;;;14.70;10.55;;;153.70;2252.80;;;;;;4941534;29;20027;-78
2021/04/04 05:53:53;;;;;;;13.05;9.85;;;154.40;2252.80;;;;;;4941403;28;20027;-75
2021/04/04 05:56:31;;;;;;;12.30;9.63;;;179.70;2252.80;;;;;;4945567;28;20079;-78
2021/04/04 05:59:05;;;;;;;16.42;9.35;;;180.00;2252.80;;;;;;4947804;29;20106;-77
2021/04/04 06:01:35;;;;;;;14.13;10.15;;;179.70;2252.80;;;;;;4932922;29;20115;-73
2021/04/04 06:04:18;;;;;;;13.73;9.05;;;179.70;2252.80;;;;;;4936927;29;20035;-74
2021/04/04 06:07:22;;;;;;;13.30;10.02;;;179.70;2252.80;;;;;;4950477;28;20039;-73
2021/04/04 06:10:21;;;;;;;13.10;9.65;;;179.40;2252.80;;;;;;4859560;29;20504;-72
2021/04/04 06:13:29;;;;;;;13.43;9.82;;;179.30;2252.80;;;;;;4853900;29;20112;-78
2021/04/04 06:16:19;;;;;;;18.55;10.35;;;154.00;2252.80;;;;;;4827209;29;20416;-79
2021/04/04 06:19:09;;;;;;;15.23;9.32;;;154.50;2252.80;;;;;;4800151;29;20051;-72
2021/04/04 06:21:48;;;;;;;13.13;9.65;;;179.50;2252.80;;;;;;4801226;29;20035;-74
2021/04/04 06:24:33;;;;;;;11.68;8.32;;;154.40;2252.80;;;;;;4810251;29;20037;-74
2021/04/04 06:27:12;;;;;;;14.02;9.68;;;154.30;2252.80;;;;;;4801604;29;20038;-75
2021/04/04 06:30:00;;;;;;;12.07;9.63;;;154.20;2252.80;;;;;;4800306;29;20202;-75
2021/04/04 06:32:52;;;;;;;13.25;9.70;;;154.30;2252.80;;;;;;4805323;29;20034;-74
2021/04/04 06:35:31;;;;;;;12.00;8.88;;;154.20;2252.80;;;;;;4796845;29;20043;-73
2021/04/04 06:38:14;;;;;;;18.55;13.05;;;154.20;2252.80;;;;;;4805328;29;20077;-74
2021/04/04 06:40:58;;;;;;;50.28;33.83;;;154.20;2252.80;;;;;;4806462;29;20070;-74
2021/04/04 06:43:57;;;;;;;27.80;19.65;;;154.10;2252.80;;;;;;4801470;29;20072;-74
2021/04/04 06:46:55;;;;;;;20.77;18.23;;;154.10;2252.80;;;;;;4831651;29;20399;-73
2021/04/04 06:49:44;;;;;;;14.88;11.65;;;154.10;2252.80;;;;;;4822081;29;20042;-74
2021/04/04 06:52:31;;;;;;;15.45;13.13;;;153.90;2252.80;;;;;;4822074;29;20042;-74
2021/04/04 06:55:07;;;;;;;17.05;11.25;;;154.00;2252.80;;;;;;4864534;29;20033;-76
2021/04/04 06:57:54;;;;;;;14.00;10.23;;;153.90;2252.80;;;;;;4860495;29;20045;-76
2021/04/04 07:00:28;;;;;;;14.63;10.60;;;153.90;2252.80;;;;;;4862174;29;20042;-75
2021/04/04 07:02:56;;;;;;;14.50;10.90;;;153.80;2252.80;;;;;;4860219;29;20613;-73
2021/04/04 07:05:27;;;;;;;15.75;11.38;;;153.80;2252.80;;;;;;4859870;29;20053;-74
2021/04/04 07:08:30;;;;;;;24.95;15.93;;;153.70;2252.80;;;;;;4860086;29;20041;-76
2021/04/04 07:11:12;;;;;;;163.35;87.53;;;153.70;2252.80;;;;;;4774867;30;20510;-73
2021/04/04 07:14:02;;;;;;;191.57;127.05;;;153.60;2252.80;;;;;;4774344;30;20047;-73
2021/04/04 07:16:39;;;;;;;131.32;111.15;;;153.70;2252.80;;;;;;4769765;29;20042;-73
2021/04/04 07:19:32;;;;;;;20.88;16.40;;;153.80;2252.80;;;;;;4795406;29;20097;-75
2021/04/04 07:22:13;;;;;;;16.23;11.77;;;153.80;2252.80;;;;;;4792156;29;20137;-75
2021/04/04 07:24:53;;;;;;;16.40;12.25;;;153.70;2252.80;;;;;;4795083;29;20438;-73
2021/04/04 07:28:01;;;;;;;22.08;12.82;;;153.70;2252.80;;;;;;4840239;29;20040;-73
2021/04/04 07:30:35;;;;;;;29.50;26.38;;;153.70;2252.80;;;;;;4845086;29;20496;-74
2021/04/04 07:33:22;;;;;;;18.55;13.85;;;153.70;2252.80;;;;;;4843302;29;20644;-78
2021/04/04 07:35:50;;;;;;;21.90;15.15;;;153.70;2252.80;;;;;;4842116;29;20077;-74
2021/04/04 07:38:29;;;;;;;20.73;13.05;;;153.80;2252.80;;;;;;4840850;29;20152;-76
2021/04/04 07:41:08;;;;;;;221.43;131.35;;;153.90;2252.80;;;;;;4841311;29;20060;-76
2021/04/04 07:43:56;;;;;;;112.43;78.95;;;153.80;2252.80;;;;;;4836478;29;20103;-75
2021/04/04 07:46:41;;;;;;;42.13;29.27;;;153.90;2252.80;;;;;;4846847;29;20552;-74
2021/04/04 07:49:26;;;;;;;107.47;79.28;;;154.00;2252.80;;;;;;4945391;28;20031;-72
2021/04/04 07:51:57;;;;;;;28.50;22.35;;;154.10;2252.80;;;;;;4942159;29;20389;-76
2021/04/04 07:54:58;;;;;;;47.72;31.08;;;154.20;2252.80;;;;;;4930378;28;20101;-73
2021/04/04 07:57:38;;;;;;;43.63;28.33;;;154.40;2252.80;;;;;;4858763;29;20714;-74
2021/04/04 08:00:10;;;;;;;18.52;14.25;;;179.20;2252.80;;;;;;4860546;29;20034;-73
2021/04/04 08:02:52;;;;;;;13.73;10.97;;;179.40;2252.80;;;;;;4861281;29;20029;-73
2021/04/04 08:05:29;;;;;;;15.52;12.10;;;179.40;2252.80;;;;;;4858922;29;20074;-74
2021/04/04 08:08:11;;;;;;;216.38;75.78;;;179.50;2252.80;;;;;;4860867;29;20041;-76
2021/04/04 08:10:55;;;;;;;44.17;39.35;;;179.70;2252.80;;;;;;4855372;29;20036;-74
2021/04/04 08:13:40;;;;;;;;;;;179.60;2252.80;;;;;;4857608;29;20447;-71
2021/04/04 08:16:28;;;;;;;23.23;10.82;;;179.70;2252.80;;;;;;4857735;29;19916;-73
2021/04/04 08:18:54;;;;;;;56.25;46.92;;;180.00;2252.80;;;;;;4853995;29;20053;-74
2021/04/04 08:22:03;;;;;;;22.67;12.63;;;204.80;2252.80;;;;;;4863043;29;20025;-75
2021/04/04 08:24:34;;;;;;;15.68;10.15;;;205.30;2252.80;;;;;;4787693;29;20030;-78
2021/04/04 08:27:07;;;;;;;20.08;12.77;;;205.40;2252.80;;;;;;4803431;29;20131;-73
2021/04/04 08:29:45;;;;;;;17.95;11.75;;;205.40;2252.80;;;;;;4802120;29;20572;-74
2021/04/04 08:32:15;;;;;;;20.70;14.23;;;205.40;2252.80;;;;;;4801627;29;20510;-72
2021/04/04 08:35:02;;;;;;;18.33;13.60;;;205.30;2252.80;;;;;;4876042;29;20164;-75
2021/04/04 08:37:34;;;;;;;13.23;8.68;;;205.30;2252.80;;;;;;4877973;29;20136;-75
2021/04/04 08:40:07;;;;;;;10.55;7.47;;;205.30;2252.80;;;;;;4876850;29;20032;-75
2021/04/04 08:42:34;;;;;;;10.48;7.82;;;205.40;2252.80;;;;;;4884350;29;20033;-75
2021/04/04 08:45:15;;;;;;;20.58;16.83;;;205.30;2252.80;;;;;;4873655;29;20029;-74
2021/04/04 08:47:48;;;;;;;36.35;27.13;;;205.10;2252.80;;;;;;4875673;29;20152;-74
2021/04/04 08:50:19;;;;;;;34.92;31.25;;;230.60;2252.80;;;;;;4862134;29;20443;-75
2021/04/04 08:52:56;;;;;;;22.00;14.82;;;204.90;2252.80;;;;;;4878443;29;20037;-74
2021/04/04 08:55:26;;;;;;;15.98;10.88;;;204.90;2252.80;;;;;;4922297;28;20413;-76
2021/04/04 08:57:53;;;;;;;18.42;13.00;;;204.80;2252.80;;;;;;4952156;28;20077;-75
2021/04/04 09:00:23;;;;;;;19.80;14.18;;;204.80;2252.80;;;;;;4946453;29;20055;-74
2021/04/04 09:02:58;;;;;;;11.70;9.27;;;204.90;2252.80;;;;;;4953421;28;20082;-77
2021/04/04 09:05:27;;;;;;;13.32;9.27;;;204.90;2252.80;;;;;;4950230;28;20366;-75
2021/04/04 09:07:59;;;;;;;12.30;9.38;;;204.90;2252.80;;;;;;4944861;28;20102;-74
2021/04/04 09:10:29;;;;;;;9.95;7.97;;;204.90;2252.80;;;;;;4944261;28;20035;-76
2021/04/04 09:12:57;;;;;;;13.57;9.25;;;180.10;2252.80;;;;;;4949976;28;20087;-75
2021/04/04 09:15:23;;;;;;;14.18;9.45;;;180.00;2252.80;;;;;;4950982;28;20030;-74
2021/04/04 09:17:54;;;;;;;13.18;9.85;;;180.10;2252.80;;;;;;4949898;29;20059;-75
2021/04/04 09:20:41;;;;;;;15.60;9.98;;;180.00;2252.80;;;;;;4945334;29;20541;-74
2021/04/04 09:23:08;;;;;;;16.52;11.60;;;204.80;2252.80;;;;;;4945553;29;20039;-74
2021/04/04 09:25:41;;;;;;;17.67;11.15;;;204.80;2252.80;;;;;;4941254;29;20027;-78
2021/04/04 09:28:07;;;;;;;13.13;9.83;;;205.00;2252.80;;;;;;4910788;29;20036;-79
2021/04/04 09:30:45;;;;;;;10.50;8.70;;;205.00;2252.80;;;;;;4944217;28;20277;-81
2021/04/04 09:33:29;;;;;;;12.73;10.07;;;205.00;2252.80;;;;;;4931369;29;20037;-76
2021/04/04 09:35:58;;;;;;;13.20;10.15;;;205.00;2252.80;;;;;;4951983;28;20031;-75
2021/04/04 09:38:40;;;;;;;15.00;9.93;;;205.00;2252.80;;;;;;4941116;29;20040;-74
2021/04/04 09:41:08;;;;;;;12.77;9.30;;;204.90;2252.80;;;;;;4943963;28;20445;-76
2021/04/04 09:44:04;;;;;;;15.60;11.75;;;204.90;2252.80;;;;;;4946406;28;20034;-75
2021/04/04 09:46:30;;;;;;;12.98;10.25;;;205.10;2252.80;;;;;;4934567;29;20047;-74
2021/04/04 09:48:56;;;;;;;15.77;10.50;;;205.20;2252.80;;;;;;4944071;28;20038;-75
2021/04/04 09:51:22;;;;;;;17.38;14.25;;;205.30;2252.80;;;;;;4947122;29;20031;-75
2021/04/04 09:53:50;;;;;;;17.75;14.48;;;205.20;2252.80;;;;;;4951265;28;20054;-75
2021/04/04 09:56:27;;;;;;;15.77;10.13;;;205.30;2252.80;;;;;;4949175;28;20058;-74
2021/04/04 09:58:54;;;;;;;15.73;10.35;;;205.20;2252.80;;;;;;4951504;29;20043;-75
2021/04/04 10:01:32;;;;;;;13.80;11.00;;;205.40;2252.80;;;;;;4942117;28;20110;-77
2021/04/04 10:04:04;;;;;;;19.13;12.65;;;205.20;2252.80;;;;;;4926525;29;20360;-74
2021/04/04 10:06:32;;;;;;;27.35;17.80;;;205.20;2252.80;;;;;;4947921;28;20465;-73
2021/04/04 10:09:05;;;;;;;24.02;14.77;;;205.30;2252.80;;;;;;4952185;28;20042;-73
2021/04/04 10:11:32;;;;;;;32.47;17.77;;;205.30;2252.80;;;;;;4940743;28;20509;-73
2021/04/04 10:14:16;;;;;;;14.05;10.07;;;205.40;2252.80;;;;;;4942160;28;20036;-74
2021/04/04 10:16:43;;;;;;;12.90;8.82;;;205.50;2252.80;;;;;;4943437;28;20050;-76
2021/04/04 10:19:15;;;;;;;16.52;9.57;;;205.40;2252.80;;;;;;4947422;28;20038;-74
2021/04/04 10:21:59;;;;;;;13.13;8.05;;;205.60;2252.80;;;;;;4941548;28;20109;-73
2021/04/04 10:24:34;;;;;;;12.10;8.55;;;205.50;2252.80;;;;;;4949395;28;20047;-74
2021/04/04 10:27:19;;;;;;;17.08;13.48;;;230.40;2252.80;;;;;;4939740;29;20050;-74
2021/04/04 10:29:47;;;;;;;14.25;8.70;;;230.40;2252.80;;;;;;4952126;28;20567;-80
2021/04/04 10:32:14;;;;;;;11.75;8.70;;;230.50;2252.80;;;;;;4958756;29;20038;-76
2021/04/04 10:34:46;;;;;;;13.40;8.57;;;230.50;2252.80;;;;;;4956968;29;20119;-75
2021/04/04 10:37:20;;;;;;;22.70;19.95;;;230.60;2252.80;;;;;;4948323;28;20032;-76
2021/04/04 10:39:57;;;;;;;10.48;8.48;;;230.60;2252.80;;;;;;4946224;28;20494;-75
2021/04/04 10:42:24;;;;;;;9.70;7.25;;;230.70;2176.00;;;;;;4958408;28;20022;-77
2021/04/04 10:45:08;;;;;;;11.15;7.75;;;230.70;2150.40;;;;;;4960764;28;20035;-77
2021/04/04 10:47:34;;;;;;;16.40;10.50;;;230.70;2150.40;;;;;;4944959;29;20054;-75
2021/04/04 10:50:07;;;;;;;12.45;9.43;;;230.50;2099.20;;;;;;4959320;28;20472;-77
2021/04/04 10:52:34;;;;;;;14.57;9.55;;;230.40;2099.20;;;;;;4939528;28;20106;-74
2021/04/04 10:55:01;;;;;;;10.98;8.02;;;230.40;2099.20;;;;;;4959190;28;20059;-75
2021/04/04 10:57:31;;;;;;;11.45;7.53;;;205.60;2099.20;;;;;;4958755;28;20488;-76
2021/04/04 10:59:57;;;;;;;10.82;7.47;;;205.70;2124.80;;;;;;4934772;29;20484;-75
2021/04/04 11:02:24;;;;;;;9.05;6.57;;;205.60;2099.20;;;;;;4934139;29;20050;-75
2021/04/04 11:04:50;;;;;;;8.68;6.68;;;205.70;2124.80;;;;;;4952268;29;20023;-75
2021/04/04 11:07:19;;;;;;;16.42;11.30;;;205.70;2073.60;;;;;;4949322;28;20027;-76
2021/04/04 11:09:48;;;;;;;10.40;7.10;;;230.40;2099.20;;;;;;4958798;28;20035;-75
2021/04/04 11:12:15;;;;;;;10.80;6.68;;;230.60;2073.60;;;;;;4963304;28;20023;-76
2021/04/04 11:14:47;;;;;;;11.00;7.03;;;230.70;2048.00;;;;;;4955256;28;20363;-74
2021/04/04 11:17:19;;;;;;;10.52;6.88;;;230.60;2073.60;;;;;;4957059;28;20063;-76
2021/04/04 11:19:46;;;;;;;11.38;5.93;;;230.70;2048.00;;;;;;4949659;29;20385;-74
2021/04/04 11:22:20;;;;;;;8.25;5.53;;;230.90;2048.00;;;;;;4954961;29;20035;-74
2021/04/04 11:24:58;;;;;;;9.77;5.50;;;;;;;;;;4960099;28;20065;-76
2021/04/04 11:27:44;;;;;;;7.88;5.72;;;;;;;;;;4943289;29;20401;-75
2021/04/04 11:30:30;;;;;;;9.20;5.40;;;;;;;;;;4951908;29;20130;-77
2021/04/04 11:33:15;;;;;;;10.85;6.18;;;;;;;;;;4944127;28;20043;-78
2021/04/04 11:35:56;;;;;;;8.63;5.45;;;;;;;;;;4938220;29;20501;-76
2021/04/04 11:38:22;;;;;;;7.82;5.40;;;;;;;;;;4938248;29;20043;-79
2021/04/04 11:41:23;;;;;;;10.40;5.95;;;230.70;2252.80;;;;;;4955996;29;20023;-74
2021/04/04 11:44:13;;;;;;;9.07;6.20;;;230.50;1971.20;;;;;;4947139;29;20043;-74
2021/04/04 11:46:54;;;;;;;9.32;6.53;;;230.40;2022.40;;;;;;4950127;29;20042;-74
2021/04/04 11:49:41;;;;;;;6.88;5.75;;;205.60;2048.00;;;;;;4956437;29;20031;-74
2021/04/04 11:52:09;;;;;;;8.85;5.75;;;205.60;2124.80;;;;;;4949113;29;20027;-75
2021/04/04 11:54:49;;;;;;;8.20;6.05;;;205.70;2176.00;;;;;;4944251;29;20031;-74
2021/04/04 11:57:22;;;;;;;9.98;6.43;;;230.40;2201.60;;;;;;4951674;29;20126;-75
2021/04/04 11:59:55;;;;;;;14.82;7.68;;;230.40;2201.60;;;;;;4953094;29;20066;-76
2021/04/04 12:02:23;;;;;;;10.85;7.45;;;230.50;2252.80;;;;;;4954171;29;20031;-75
2021/04/04 12:05:04;;;;;;;9.77;7.78;;;230.60;2252.80;;;;;;4955684;29;20031;-77
2021/04/04 12:07:31;;;;;;;9.98;7.00;;;230.80;2252.80;;;;;;4951659;28;20568;-75
2021/04/04 12:09:58;;;;;;;9.95;7.10;;;230.90;2252.80;;;;;;4959698;28;20497;-78
2021/04/04 12:12:31;;;;;;;8.30;6.43;;;231.00;2252.80;;;;;;4957384;28;20019;-77
2021/04/04 12:14:58;;;;;;;9.55;6.25;;;231.10;2176.00;;;;;;4953997;28;20039;-78
2021/04/04 12:17:29;;;;;;;11.60;6.55;;;;;;;;;;4958643;29;20117;-75
2021/04/04 12:19:55;;;;;;;9.18;6.90;;;;;;;;;;4948595;29;20082;-77
2021/04/04 12:22:32;;;;;;;10.27;6.35;;;;;;;;;;4954515;28;20027;-76
2021/04/04 12:24:58;;;;;;;8.25;6.43;;;;;;;;;;4955853;28;20365;-74
2021/04/04 12:27:25;;;;;;;15.00;8.45;;;;;;;;;;4954268;28;20047;-75
2021/04/04 12:29:55;;;;;;;11.38;7.28;;;;;;;;;;4950437;29;20023;-76
2021/04/04 12:32:30;;;;;;;12.15;6.85;;;231.00;2252.80;;;;;;4967830;28;20538;-77
2021/04/04 12:35:01;;;;;;;12.32;6.60;;;230.90;2099.20;;;;;;4954711;28;20162;-78
2021/04/04 12:37:29;;;;;;;9.07;6.82;;;230.80;2048.00;;;;;;4957141;29;20059;-76
2021/04/04 12:39:58;;;;;;;10.60;6.68;;;230.50;2073.60;;;;;;4949662;29;20136;-77
2021/04/04 12:42:27;;;;;;;10.68;6.80;;;230.60;2073.60;;;;;;4953534;28;20410;-76
2021/04/04 12:44:54;;;;;;;12.80;6.85;;;230.50;2099.20;;;;;;4955270;29;20031;-75